sensor_id;sensor_type;location;lat;lon;timestamp;pressure;altitude;pressure_sealevel;temperature;humidity
13422;BME280;6782;55.904;13.396;2023-05-21T00:00:07;101839.84;;;10.38;100.00
13422;BME280;6782;55.904;13.396;2023-05-21T00:02:57;101828.56;;;10.06;100.00
13422;BME280;6782;55.904;13.396;2023-05-21T00:05:44;101840.88;;;9.89;100.00
13422;BME280;6782;55.904;13.396;2023-05-21T00:08:32;101859.34;;;9.93;100.00
13422;BME280;6782;55.904;13.396;2023-05-21T00:11:19;101861.09;;;9.94;100.00
13422;BME280;6782;55.904;13.396;2023-05-21T00:14:07;101870.75;;;9.89;100.00
13422;BME280;6782;55.904;13.396;2023-05-21T00:16:54;101876.94;;;9.81;100.00
13422;BME280;6782;55.904;13.396;2023-05-21T00:19:42;101890.09;;;9.88;100.00
13422;BME280;6782;55.904;13.396;2023-05-21T00:22:30;101883.09;;;9.80;100.00
13422;BME280;6782;55.904;13.396;2023-05-21T00:25:18;101902.41;;;9.77;100.00
13422;BME280;6782;55.904;13.396;2023-05-21T00:28:05;101905.94;;;9.81;100.00
13422;BME280;6782;55.904;13.396;2023-05-21T00:30:52;101902.41;;;9.79;100.00
13422;BME280;6782;55.904;13.396;2023-05-21T00:33:39;101904.16;;;9.77;100.00
13422;BME280;6782;55.904;13.396;2023-05-21T00:36:28;101898.91;;;9.77;100.00
13422;BME280;6782;55.904;13.396;2023-05-21T00:39:15;101899.75;;;9.79;100.00
13422;BME280;6782;55.904;13.396;2023-05-21T00:42:03;101911.16;;;9.87;100.00
13422;BME280;6782;55.904;13.396;2023-05-21T00:44:50;101906.75;;;9.92;100.00
13422;BME280;6782;55.904;13.396;2023-05-21T00:47:38;101919.97;;;9.86;100.00
13422;BME280;6782;55.904;13.396;2023-05-21T00:50:26;101933.97;;;10.06;100.00
13422;BME280;6782;55.904;13.396;2023-05-21T00:53:17;101912.03;;;9.96;100.00
13422;BME280;6782;55.904;13.396;2023-05-21T00:56:05;101920.78;;;10.07;100.00
13422;BME280;6782;55.904;13.396;2023-05-21T00:58:53;101891.84;;;9.76;100.00
13422;BME280;6782;55.904;13.396;2023-05-21T01:01:42;101900.66;;;9.69;100.00
13422;BME280;6782;55.904;13.396;2023-05-21T01:04:30;101918.22;;;9.79;100.00
13422;BME280;6782;55.904;13.396;2023-05-21T01:07:17;101900.66;;;9.72;100.00
13422;BME280;6782;55.904;13.396;2023-05-21T01:10:08;101903.28;;;9.81;100.00
13422;BME280;6782;55.904;13.396;2023-05-21T01:12:57;101893.66;;;9.78;100.00
13422;BME280;6782;55.904;13.396;2023-05-21T01:15:44;101898.00;;;9.73;100.00
13422;BME280;6782;55.904;13.396;2023-05-21T01:18:31;101898.03;;;9.70;100.00
13422;BME280;6782;55.904;13.396;2023-05-21T01:21:20;101893.66;;;9.43;100.00
13422;BME280;6782;55.904;13.396;2023-05-21T01:24:12;101914.72;;;9.40;100.00
13422;BME280;6782;55.904;13.396;2023-05-21T01:27:01;101918.25;;;9.36;100.00
13422;BME280;6782;55.904;13.396;2023-05-21T01:29:49;101927.91;;;9.43;100.00
13422;BME280;6782;55.904;13.396;2023-05-21T01:32:41;101925.25;;;9.37;100.00
13422;BME280;6782;55.904;13.396;2023-05-21T01:35:31;101939.28;;;9.53;100.00
13422;BME280;6782;55.904;13.396;2023-05-21T01:38:24;101949.84;;;9.73;100.00
13422;BME280;6782;55.904;13.396;2023-05-21T01:41:18;101955.94;;;9.97;100.00
13422;BME280;6782;55.904;13.396;2023-05-21T01:44:07;101934.88;;;10.00;100.00
13422;BME280;6782;55.904;13.396;2023-05-21T01:46:56;101913.81;;;9.73;100.00
13422;BME280;6782;55.904;13.396;2023-05-21T01:49:44;101902.44;;;9.45;100.00
13422;BME280;6782;55.904;13.396;2023-05-21T01:52:31;101895.41;;;9.38;100.00
13422;BME280;6782;55.904;13.396;2023-05-21T01:55:19;101923.50;;;9.42;100.00
13422;BME280;6782;55.904;13.396;2023-05-21T01:58:11;101919.97;;;9.56;100.00
13422;BME280;6782;55.904;13.396;2023-05-21T02:00:58;101925.25;;;9.59;100.00
13422;BME280;6782;55.904;13.396;2023-05-21T02:03:47;101925.25;;;9.59;100.00
13422;BME280;6782;55.904;13.396;2023-05-21T02:06:34;101923.50;;;9.64;100.00
13422;BME280;6782;55.904;13.396;2023-05-21T02:09:24;101920.00;;;9.62;100.00
13422;BME280;6782;55.904;13.396;2023-05-21T02:12:11;101916.47;;;9.66;100.00
13422;BME280;6782;55.904;13.396;2023-05-21T02:14:59;101916.47;;;9.69;100.00
13422;BME280;6782;55.904;13.396;2023-05-21T02:17:47;101919.09;;;9.69;100.00
13422;BME280;6782;55.904;13.396;2023-05-21T02:20:35;101914.72;;;9.68;100.00
13422;BME280;6782;55.904;13.396;2023-05-21T02:23:23;101937.50;;;10.02;100.00
13422;BME280;6782;55.904;13.396;2023-05-21T02:26:10;101911.16;;;9.96;100.00
13422;BME280;6782;55.904;13.396;2023-05-21T02:28:57;101909.38;;;9.99;100.00
13422;BME280;6782;55.904;13.396;2023-05-21T02:31:45;101903.28;;;9.85;100.00
13422;BME280;6782;55.904;13.396;2023-05-21T02:34:32;101900.66;;;9.66;100.00
13422;BME280;6782;55.904;13.396;2023-05-21T02:37:27;101884.00;;;9.56;100.00
13422;BME280;6782;55.904;13.396;2023-05-21T02:40:13;101900.69;;;9.60;100.00
13422;BME280;6782;55.904;13.396;2023-05-21T02:43:00;101895.41;;;9.60;100.00
13422;BME280;6782;55.904;13.396;2023-05-21T02:45:47;101906.81;;;9.48;100.00
13422;BME280;6782;55.904;13.396;2023-05-21T02:48:37;101909.47;;;9.53;100.00
13422;BME280;6782;55.904;13.396;2023-05-21T02:51:24;101905.06;;;9.45;100.00
13422;BME280;6782;55.904;13.396;2023-05-21T02:54:11;101912.97;;;9.67;100.00
13422;BME280;6782;55.904;13.396;2023-05-21T02:56:58;101904.22;;;9.53;100.00
13422;BME280;6782;55.904;13.396;2023-05-21T02:59:46;101905.97;;;9.52;100.00
13422;BME280;6782;55.904;13.396;2023-05-21T03:02:33;101916.50;;;9.60;100.00
13422;BME280;6782;55.904;13.396;2023-05-21T03:05:22;101932.28;;;9.75;100.00
13422;BME280;6782;55.904;13.396;2023-05-21T03:08:09;101918.22;;;9.74;100.00
13422;BME280;6782;55.904;13.396;2023-05-21T03:10:56;101921.75;;;9.78;100.00
13422;BME280;6782;55.904;13.396;2023-05-21T03:13:43;101919.09;;;9.78;100.00
13422;BME280;6782;55.904;13.396;2023-05-21T03:16:31;101908.53;;;9.73;100.00
13422;BME280;6782;55.904;13.396;2023-05-21T03:19:19;101909.47;;;9.68;100.00
13422;BME280;6782;55.904;13.396;2023-05-21T03:22:08;101912.09;;;9.59;100.00
13422;BME280;6782;55.904;13.396;2023-05-21T03:24:55;101911.22;;;9.60;100.00
13422;BME280;6782;55.904;13.396;2023-05-21T03:27:42;101950.66;;;10.05;100.00
13422;BME280;6782;55.904;13.396;2023-05-21T03:30:29;101971.53;;;10.79;100.00
13422;BME280;6782;55.904;13.396;2023-05-21T03:33:17;101918.97;;;10.41;100.00
13422;BME280;6782;55.904;13.396;2023-05-21T03:36:04;101890.03;;;10.08;100.00
13422;BME280;6782;55.904;13.396;2023-05-21T03:38:54;101888.31;;;10.01;100.00
13422;BME280;6782;55.904;13.396;2023-05-21T03:41:41;101898.81;;;10.10;100.00
13422;BME280;6782;55.904;13.396;2023-05-21T03:44:28;101907.63;;;10.18;100.00
13422;BME280;6782;55.904;13.396;2023-05-21T03:47:17;101912.84;;;10.30;100.00
13422;BME280;6782;55.904;13.396;2023-05-21T03:50:05;101897.00;;;10.33;100.00
13422;BME280;6782;55.904;13.396;2023-05-21T03:52:52;101870.72;;;10.12;100.00
13422;BME280;6782;55.904;13.396;2023-05-21T03:55:41;101892.63;;;10.37;100.00
13422;BME280;6782;55.904;13.396;2023-05-21T03:58:29;101910.84;;;10.81;100.00
13422;BME280;6782;55.904;13.396;2023-05-21T04:01:18;101916.63;;;11.37;100.00
13422;BME280;6782;55.904;13.396;2023-05-21T04:04:05;101878.81;;;11.32;100.00
13422;BME280;6782;55.904;13.396;2023-05-21T04:06:52;101843.81;;;11.09;100.00
13422;BME280;6782;55.904;13.396;2023-05-21T04:09:40;101848.78;;;11.42;100.00
13422;BME280;6782;55.904;13.396;2023-05-21T04:12:29;101833.75;;;11.49;100.00
13422;BME280;6782;55.904;13.396;2023-05-21T04:15:16;101836.91;;;11.87;100.00
13422;BME280;6782;55.904;13.396;2023-05-21T04:18:04;101833.53;;;12.43;100.00
13422;BME280;6782;55.904;13.396;2023-05-21T04:20:52;101798.41;;;12.33;100.00
13422;BME280;6782;55.904;13.396;2023-05-21T04:23:39;101760.81;;;12.10;100.00
13422;BME280;6782;55.904;13.396;2023-05-21T04:26:26;101743.91;;;12.22;100.00
13422;BME280;6782;55.904;13.396;2023-05-21T04:29:15;101707.16;;;12.04;100.00
13422;BME280;6782;55.904;13.396;2023-05-21T04:32:06;101704.31;;;12.16;100.00
13422;BME280;6782;55.904;13.396;2023-05-21T04:34:53;101660.81;;;11.78;100.00
13422;BME280;6782;55.904;13.396;2023-05-21T04:37:42;101666.75;;;11.92;100.00
13422;BME280;6782;55.904;13.396;2023-05-21T04:40:30;101663.06;;;12.06;100.00
13422;BME280;6782;55.904;13.396;2023-05-21T04:43:17;101650.69;;;12.08;100.00
13422;BME280;6782;55.904;13.396;2023-05-21T04:46:11;101640.72;;;12.25;100.00
13422;BME280;6782;55.904;13.396;2023-05-21T04:48:58;101623.84;;;12.32;100.00
13422;BME280;6782;55.904;13.396;2023-05-21T04:51:47;101610.97;;;12.61;100.00
13422;BME280;6782;55.904;13.396;2023-05-21T04:54:37;101558.34;;;12.46;100.00
13422;BME280;6782;55.904;13.396;2023-05-21T04:57:26;101569.41;;;12.66;100.00
13422;BME280;6782;55.904;13.396;2023-05-21T05:00:14;101532.41;;;12.65;100.00
13422;BME280;6782;55.904;13.396;2023-05-21T05:03:03;101512.22;;;12.59;100.00
13422;BME280;6782;55.904;13.396;2023-05-21T05:05:51;101518.78;;;12.84;100.00
13422;BME280;6782;55.904;13.396;2023-05-21T05:08:38;101526.94;;;13.18;100.00
13422;BME280;6782;55.904;13.396;2023-05-21T05:11:26;101505.19;;;13.42;100.00
13422;BME280;6782;55.904;13.396;2023-05-21T05:14:13;101477.41;;;13.60;100.00
13422;BME280;6782;55.904;13.396;2023-05-21T05:17:00;101424.44;;;13.58;100.00
13422;BME280;6782;55.904;13.396;2023-05-21T05:19:49;101374.16;;;13.54;100.00
13422;BME280;6782;55.904;13.396;2023-05-21T05:22:37;101405.97;;;13.89;100.00
13422;BME280;6782;55.904;13.396;2023-05-21T05:25:25;101388.47;;;14.14;100.00
13422;BME280;6782;55.904;13.396;2023-05-21T05:28:12;101305.13;;;14.21;100.00
13422;BME280;6782;55.904;13.396;2023-05-21T05:30:59;101228.13;;;14.24;100.00
13422;BME280;6782;55.904;13.396;2023-05-21T05:33:47;101234.84;;;14.64;100.00
13422;BME280;6782;55.904;13.396;2023-05-21T05:36:35;101158.06;;;15.09;100.00
13422;BME280;6782;55.904;13.396;2023-05-21T05:39:22;101024.84;;;14.96;100.00
13422;BME280;6782;55.904;13.396;2023-05-21T05:42:09;100980.59;;;15.18;100.00
13422;BME280;6782;55.904;13.396;2023-05-21T05:44:57;100844.59;;;15.09;100.00
13422;BME280;6782;55.904;13.396;2023-05-21T05:47:44;100835.97;;;15.25;100.00
13422;BME280;6782;55.904;13.396;2023-05-21T05:50:31;100732.63;;;15.18;100.00
13422;BME280;6782;55.904;13.396;2023-05-21T05:53:20;100721.97;;;15.39;100.00
13422;BME280;6782;55.904;13.396;2023-05-21T05:56:07;100609.31;;;15.03;100.00
13422;BME280;6782;55.904;13.396;2023-05-21T05:58:54;100665.22;;;15.00;100.00
13422;BME280;6782;55.904;13.396;2023-05-21T06:01:41;100640.00;;;15.10;100.00
13422;BME280;6782;55.904;13.396;2023-05-21T06:04:29;100604.66;;;15.08;100.00
13422;BME280;6782;55.904;13.396;2023-05-21T06:07:16;100640.19;;;15.26;100.00
13422;BME280;6782;55.904;13.396;2023-05-21T06:10:05;100557.69;;;15.29;100.00
13422;BME280;6782;55.904;13.396;2023-05-21T06:12:52;100555.78;;;15.32;100.00
13422;BME280;6782;55.904;13.396;2023-05-21T06:15:40;100679.19;;;15.65;100.00
13422;BME280;6782;55.904;13.396;2023-05-21T06:18:27;100656.69;;;15.73;100.00
13422;BME280;6782;55.904;13.396;2023-05-21T06:21:15;100661.75;;;15.79;100.00
13422;BME280;6782;55.904;13.396;2023-05-21T06:24:02;100526.56;;;15.70;100.00
13422;BME280;6782;55.904;13.396;2023-05-21T06:26:50;100589.13;;;15.95;100.00
13422;BME280;6782;55.904;13.396;2023-05-21T06:29:38;100624.94;;;16.07;100.00
13422;BME280;6782;55.904;13.396;2023-05-21T06:32:25;100511.63;;;16.03;100.00
13422;BME280;6782;55.904;13.396;2023-05-21T06:35:12;100497.41;;;16.21;100.00
13422;BME280;6782;55.904;13.396;2023-05-21T06:37:59;100546.28;;;16.54;100.00
13422;BME280;6782;55.904;13.396;2023-05-21T06:40:46;100331.53;;;16.38;100.00
13422;BME280;6782;55.904;13.396;2023-05-21T06:43:35;100376.63;;;16.58;100.00
13422;BME280;6782;55.904;13.396;2023-05-21T06:46:22;100269.41;;;16.54;100.00
13422;BME280;6782;55.904;13.396;2023-05-21T06:49:10;100457.66;;;17.02;100.00
13422;BME280;6782;55.904;13.396;2023-05-21T06:51:58;100274.94;;;16.82;100.00
13422;BME280;6782;55.904;13.396;2023-05-21T06:54:46;100234.88;;;17.00;100.00
13422;BME280;6782;55.904;13.396;2023-05-21T06:57:33;100204.84;;;17.12;100.00
13422;BME280;6782;55.904;13.396;2023-05-21T07:00:22;100312.88;;;17.33;100.00
13422;BME280;6782;55.904;13.396;2023-05-21T07:03:09;100181.31;;;17.34;100.00
13422;BME280;6782;55.904;13.396;2023-05-21T07:05:57;100204.06;;;17.39;100.00
13422;BME280;6782;55.904;13.396;2023-05-21T07:08:44;100129.44;;;17.25;100.00
13422;BME280;6782;55.904;13.396;2023-05-21T07:11:32;100205.22;;;17.35;100.00
13422;BME280;6782;55.904;13.396;2023-05-21T07:14:19;100185.03;;;17.61;100.00
13422;BME280;6782;55.904;13.396;2023-05-21T07:17:08;100085.94;;;17.81;100.00
13422;BME280;6782;55.904;13.396;2023-05-21T07:19:55;99998.53;;;17.99;100.00
13422;BME280;6782;55.904;13.396;2023-05-21T07:22:42;99978.47;;;18.33;100.00
13422;BME280;6782;55.904;13.396;2023-05-21T07:25:30;99778.88;;;18.24;100.00
13422;BME280;6782;55.904;13.396;2023-05-21T07:28:17;99595.63;;;18.11;100.00
13422;BME280;6782;55.904;13.396;2023-05-21T07:31:05;99676.72;;;18.22;100.00
13422;BME280;6782;55.904;13.396;2023-05-21T07:33:54;99596.16;;;18.17;100.00
13422;BME280;6782;55.904;13.396;2023-05-21T07:36:41;99835.28;;;18.57;100.00
13422;BME280;6782;55.904;13.396;2023-05-21T07:39:30;99703.88;;;18.64;100.00
13422;BME280;6782;55.904;13.396;2023-05-21T07:42:17;99615.66;;;18.66;100.00
13422;BME280;6782;55.904;13.396;2023-05-21T07:45:05;99751.72;;;19.04;100.00
13422;BME280;6782;55.904;13.396;2023-05-21T07:47:52;99419.03;;;18.98;100.00
13422;BME280;6782;55.904;13.396;2023-05-21T07:50:41;99598.13;;;19.20;100.00
13422;BME280;6782;55.904;13.396;2023-05-21T07:53:28;99642.47;;;19.23;100.00
13422;BME280;6782;55.904;13.396;2023-05-21T07:56:16;99901.97;;;19.69;100.00
13422;BME280;6782;55.904;13.396;2023-05-21T07:59:04;99494.53;;;19.46;99.75
13422;BME280;6782;55.904;13.396;2023-05-21T08:01:51;99557.59;;;19.49;100.00
13422;BME280;6782;55.904;13.396;2023-05-21T08:04:38;99696.47;;;19.74;100.00
13422;BME280;6782;55.904;13.396;2023-05-21T08:07:28;99635.19;;;19.71;99.96
13422;BME280;6782;55.904;13.396;2023-05-21T08:10:16;99647.47;;;19.84;99.65
13422;BME280;6782;55.904;13.396;2023-05-21T08:13:03;99647.34;;;20.08;98.90
13422;BME280;6782;55.904;13.396;2023-05-21T08:15:51;99762.38;;;20.32;99.71
13422;BME280;6782;55.904;13.396;2023-05-21T08:18:38;99646.66;;;20.28;98.46
13422;BME280;6782;55.904;13.396;2023-05-21T08:21:26;99466.59;;;19.93;97.35
13422;BME280;6782;55.904;13.396;2023-05-21T08:24:14;99519.88;;;19.96;97.66
13422;BME280;6782;55.904;13.396;2023-05-21T08:27:01;99871.50;;;20.17;100.00
13422;BME280;6782;55.904;13.396;2023-05-21T08:29:48;99584.59;;;19.90;98.23
13422;BME280;6782;55.904;13.396;2023-05-21T08:32:35;99973.97;;;20.19;100.00
13422;BME280;6782;55.904;13.396;2023-05-21T08:35:22;99773.16;;;20.08;99.46
13422;BME280;6782;55.904;13.396;2023-05-21T08:38:09;100023.78;;;20.22;100.00
13422;BME280;6782;55.904;13.396;2023-05-21T08:40:58;100016.84;;;20.43;100.00
13422;BME280;6782;55.904;13.396;2023-05-21T08:43:46;100116.41;;;20.60;100.00
13422;BME280;6782;55.904;13.396;2023-05-21T08:46:34;100009.47;;;20.57;100.00
13422;BME280;6782;55.904;13.396;2023-05-21T08:49:25;99917.88;;;20.41;100.00
13422;BME280;6782;55.904;13.396;2023-05-21T08:52:12;99939.31;;;20.41;100.00
13422;BME280;6782;55.904;13.396;2023-05-21T08:55:00;99900.13;;;20.63;100.00
13422;BME280;6782;55.904;13.396;2023-05-21T08:57:52;99980.91;;;20.69;100.00
13422;BME280;6782;55.904;13.396;2023-05-21T09:00:40;99751.94;;;20.51;98.96
13422;BME280;6782;55.904;13.396;2023-05-21T09:03:27;100032.97;;;21.00;99.77
13422;BME280;6782;55.904;13.396;2023-05-21T09:06:16;99829.72;;;20.83;98.86
13422;BME280;6782;55.904;13.396;2023-05-21T09:09:09;99798.06;;;21.10;97.46
13422;BME280;6782;55.904;13.396;2023-05-21T09:12:00;99535.72;;;20.74;96.76
13422;BME280;6782;55.904;13.396;2023-05-21T09:14:48;99956.84;;;21.36;98.23
13422;BME280;6782;55.904;13.396;2023-05-21T09:17:35;99848.44;;;21.49;97.26
13422;BME280;6782;55.904;13.396;2023-05-21T09:20:23;99518.94;;;21.13;95.33
13422;BME280;6782;55.904;13.396;2023-05-21T09:23:11;99825.31;;;21.58;96.51
13422;BME280;6782;55.904;13.396;2023-05-21T09:26:09;99905.59;;;22.04;96.61
13422;BME280;6782;55.904;13.396;2023-05-21T09:28:58;99676.53;;;22.13;94.50
13422;BME280;6782;55.904;13.396;2023-05-21T09:31:48;99750.22;;;22.20;95.01
13422;BME280;6782;55.904;13.396;2023-05-21T09:34:35;99681.25;;;22.30;94.01
13422;BME280;6782;55.904;13.396;2023-05-21T09:37:23;99729.28;;;22.44;93.98
13422;BME280;6782;55.904;13.396;2023-05-21T09:40:13;99682.84;;;22.32;93.68
13422;BME280;6782;55.904;13.396;2023-05-21T09:43:00;99599.63;;;22.12;93.89
13422;BME280;6782;55.904;13.396;2023-05-21T09:45:51;99787.56;;;22.02;95.10
13422;BME280;6782;55.904;13.396;2023-05-21T09:48:41;100048.75;;;22.04;97.51
13422;BME280;6782;55.904;13.396;2023-05-21T09:51:28;100187.97;;;22.75;96.96
13422;BME280;6782;55.904;13.396;2023-05-21T09:54:16;99569.47;;;22.48;92.57
13422;BME280;6782;55.904;13.396;2023-05-21T09:57:03;99491.41;;;22.40;92.65
13422;BME280;6782;55.904;13.396;2023-05-21T09:59:50;99929.81;;;22.86;94.26
13422;BME280;6782;55.904;13.396;2023-05-21T10:02:38;99649.88;;;22.70;92.93
13422;BME280;6782;55.904;13.396;2023-05-21T10:05:32;99586.09;;;22.23;93.54
13422;BME280;6782;55.904;13.396;2023-05-21T10:08:21;99600.94;;;22.27;92.81
13422;BME280;6782;55.904;13.396;2023-05-21T10:11:11;99944.13;;;22.66;94.73
13422;BME280;6782;55.904;13.396;2023-05-21T10:14:02;99824.31;;;22.73;93.96
13422;BME280;6782;55.904;13.396;2023-05-21T10:16:51;99718.34;;;22.36;94.26
13422;BME280;6782;55.904;13.396;2023-05-21T10:19:40;99931.84;;;22.73;95.27
13422;BME280;6782;55.904;13.396;2023-05-21T10:22:29;99882.38;;;23.16;93.73
13422;BME280;6782;55.904;13.396;2023-05-21T10:25:17;100175.97;;;23.84;95.03
13422;BME280;6782;55.904;13.396;2023-05-21T10:28:05;99531.81;;;23.25;91.42
13422;BME280;6782;55.904;13.396;2023-05-21T10:30:52;99748.19;;;24.08;91.21
13422;BME280;6782;55.904;13.396;2023-05-21T10:33:40;99103.41;;;23.23;88.01
13422;BME280;6782;55.904;13.396;2023-05-21T10:36:29;99714.47;;;23.28;90.87
13422;BME280;6782;55.904;13.396;2023-05-21T10:39:20;99938.28;;;23.42;92.29
13422;BME280;6782;55.904;13.396;2023-05-21T10:42:17;100001.50;;;23.48;92.75
13422;BME280;6782;55.904;13.396;2023-05-21T10:45:12;99793.28;;;23.49;90.96
13422;BME280;6782;55.904;13.396;2023-05-21T10:48:09;99937.50;;;23.71;92.16
13422;BME280;6782;55.904;13.396;2023-05-21T10:51:21;99837.06;;;23.70;90.67
13422;BME280;6782;55.904;13.396;2023-05-21T10:54:31;99920.19;;;23.54;92.55
13422;BME280;6782;55.904;13.396;2023-05-21T11:00:59;100117.66;;;23.12;94.72
13422;BME280;6782;55.904;13.396;2023-05-21T11:03:47;100258.09;;;23.05;96.45
13422;BME280;6782;55.904;13.396;2023-05-21T11:06:34;100103.50;;;22.78;95.98
13422;BME280;6782;55.904;13.396;2023-05-21T11:09:23;100372.75;;;23.06;97.86
13422;BME280;6782;55.904;13.396;2023-05-21T11:12:12;100472.31;;;23.40;98.15
13422;BME280;6782;55.904;13.396;2023-05-21T11:14:59;100529.44;;;23.77;97.45
13422;BME280;6782;55.904;13.396;2023-05-21T11:17:48;100385.94;;;24.06;96.31
13422;BME280;6782;55.904;13.396;2023-05-21T11:20:35;100263.97;;;24.95;92.88
13422;BME280;6782;55.904;13.396;2023-05-21T11:23:22;99959.97;;;24.86;90.78
13422;BME280;6782;55.904;13.396;2023-05-21T11:26:11;99324.25;;;24.35;86.68
13422;BME280;6782;55.904;13.396;2023-05-21T11:29:07;99411.97;;;24.29;86.35
13422;BME280;6782;55.904;13.396;2023-05-21T11:31:58;99664.19;;;24.50;88.01
13422;BME280;6782;55.904;13.396;2023-05-21T11:34:47;99509.72;;;25.10;84.91
13422;BME280;6782;55.904;13.396;2023-05-21T11:37:34;98949.91;;;24.50;83.28
13422;BME280;6782;55.904;13.396;2023-05-21T11:40:25;99181.63;;;24.34;84.27
13422;BME280;6782;55.904;13.396;2023-05-21T11:43:17;99008.63;;;23.88;84.07
13422;BME280;6782;55.904;13.396;2023-05-21T11:46:04;99759.25;;;23.96;89.02
13422;BME280;6782;55.904;13.396;2023-05-21T11:48:51;99670.78;;;23.91;88.24
13422;BME280;6782;55.904;13.396;2023-05-21T11:51:39;99833.38;;;23.90;89.82
13422;BME280;6782;55.904;13.396;2023-05-21T11:54:26;100084.28;;;24.45;90.35
13422;BME280;6782;55.904;13.396;2023-05-21T11:57:14;99866.25;;;24.98;87.83
13422;BME280;6782;55.904;13.396;2023-05-21T12:00:11;99661.31;;;24.78;86.94
13422;BME280;6782;55.904;13.396;2023-05-21T12:02:59;99395.00;;;23.84;87.13
13422;BME280;6782;55.904;13.396;2023-05-21T12:05:46;99858.19;;;23.65;91.01
13422;BME280;6782;55.904;13.396;2023-05-21T12:08:34;100173.50;;;24.02;92.59
13422;BME280;6782;55.904;13.396;2023-05-21T12:11:22;99645.28;;;23.86;88.64
13422;BME280;6782;55.904;13.396;2023-05-21T12:14:11;99932.59;;;24.04;90.13
13422;BME280;6782;55.904;13.396;2023-05-21T12:17:01;99595.75;;;23.69;88.78
13422;BME280;6782;55.904;13.396;2023-05-21T12:19:50;100194.81;;;23.84;93.03
13422;BME280;6782;55.904;13.396;2023-05-21T12:22:40;99871.19;;;23.60;90.87
13422;BME280;6782;55.904;13.396;2023-05-21T12:25:29;99888.09;;;24.00;90.25
13422;BME280;6782;55.904;13.396;2023-05-21T12:28:17;99831.78;;;24.36;89.29
13422;BME280;6782;55.904;13.396;2023-05-21T12:31:04;99811.38;;;24.23;89.46
13422;BME280;6782;55.904;13.396;2023-05-21T12:33:53;99944.94;;;24.07;90.80
13422;BME280;6782;55.904;13.396;2023-05-21T12:36:41;100163.03;;;24.88;90.48
13422;BME280;6782;55.904;13.396;2023-05-21T12:39:31;100022.31;;;24.83;89.36
13422;BME280;6782;55.904;13.396;2023-05-21T12:42:26;99707.38;;;25.12;86.76
13422;BME280;6782;55.904;13.396;2023-05-21T12:45:15;99564.38;;;25.38;84.89
13422;BME280;6782;55.904;13.396;2023-05-21T12:48:03;99962.56;;;26.06;86.43
13422;BME280;6782;55.904;13.396;2023-05-21T12:50:59;99290.22;;;25.27;83.02
13422;BME280;6782;55.904;13.396;2023-05-21T12:53:46;99340.31;;;24.45;84.98
13422;BME280;6782;55.904;13.396;2023-05-21T12:56:43;99817.50;;;24.99;86.81
13422;BME280;6782;55.904;13.396;2023-05-21T12:59:42;99416.81;;;24.87;84.00
13422;BME280;6782;55.904;13.396;2023-05-21T13:02:32;99267.84;;;24.34;84.52
13422;BME280;6782;55.904;13.396;2023-05-21T13:05:19;99777.50;;;24.58;87.27
13422;BME280;6782;55.904;13.396;2023-05-21T13:08:08;99825.81;;;25.15;86.87
13422;BME280;6782;55.904;13.396;2023-05-21T13:10:58;99707.16;;;25.06;86.12
13422;BME280;6782;55.904;13.396;2023-05-21T13:13:46;99505.78;;;25.05;84.53
13422;BME280;6782;55.904;13.396;2023-05-21T13:16:33;99555.81;;;24.99;85.20
13422;BME280;6782;55.904;13.396;2023-05-21T13:19:20;100168.97;;;25.20;89.43
13422;BME280;6782;55.904;13.396;2023-05-21T13:22:08;99876.31;;;24.40;89.07
13422;BME280;6782;55.904;13.396;2023-05-21T13:24:57;100255.03;;;24.55;91.88
13422;BME280;6782;55.904;13.396;2023-05-21T13:27:45;100362.16;;;25.04;91.92
13422;BME280;6782;55.904;13.396;2023-05-21T13:30:32;99921.94;;;24.70;89.39
13422;BME280;6782;55.904;13.396;2023-05-21T13:33:19;99840.94;;;24.62;89.14
13422;BME280;6782;55.904;13.396;2023-05-21T13:36:06;100077.84;;;24.85;90.56
13422;BME280;6782;55.904;13.396;2023-05-21T13:38:53;100323.25;;;25.25;92.06
13422;BME280;6782;55.904;13.396;2023-05-21T13:41:43;100301.16;;;25.70;90.14
13422;BME280;6782;55.904;13.396;2023-05-21T13:44:32;100116.94;;;25.37;90.24
13422;BME280;6782;55.904;13.396;2023-05-21T13:47:21;100084.88;;;25.15;90.59
13422;BME280;6782;55.904;13.396;2023-05-21T13:50:08;100428.44;;;25.95;91.05
13422;BME280;6782;55.904;13.396;2023-05-21T13:52:56;100118.09;;;25.54;90.18
13422;BME280;6782;55.904;13.396;2023-05-21T13:55:43;100146.84;;;24.88;92.20
13422;BME280;6782;55.904;13.396;2023-05-21T13:58:31;100436.38;;;25.28;93.39
13422;BME280;6782;55.904;13.396;2023-05-21T14:01:19;100695.44;;;25.71;94.97
13422;BME280;6782;55.904;13.396;2023-05-21T14:04:06;100390.88;;;25.64;93.23
13422;BME280;6782;55.904;13.396;2023-05-21T14:06:53;100425.56;;;25.28;94.50
13422;BME280;6782;55.904;13.396;2023-05-21T14:09:41;100618.03;;;25.19;96.85
13422;BME280;6782;55.904;13.396;2023-05-21T14:12:28;100779.84;;;25.64;97.11
13422;BME280;6782;55.904;13.396;2023-05-21T14:15:17;100241.13;;;25.95;92.11
13422;BME280;6782;55.904;13.396;2023-05-21T14:18:04;100270.00;;;25.85;92.82
13422;BME280;6782;55.904;13.396;2023-05-21T14:20:52;100081.31;;;25.24;92.42
13422;BME280;6782;55.904;13.396;2023-05-21T14:23:39;100369.44;;;24.82;95.47
13422;BME280;6782;55.904;13.396;2023-05-21T14:26:26;100448.44;;;24.94;95.88
13422;BME280;6782;55.904;13.396;2023-05-21T14:29:14;100530.28;;;25.04;96.26
13422;BME280;6782;55.904;13.396;2023-05-21T14:32:03;100623.00;;;24.51;98.96
13422;BME280;6782;55.904;13.396;2023-05-21T14:34:50;100661.53;;;24.19;100.00
13422;BME280;6782;55.904;13.396;2023-05-21T14:37:37;100791.59;;;23.99;100.00
13422;BME280;6782;55.904;13.396;2023-05-21T14:40:24;100838.63;;;24.06;100.00
13422;BME280;6782;55.904;13.396;2023-05-21T14:43:11;101016.94;;;24.48;100.00